sensor_id;sensor_type;location;lat;lon;timestamp;pressure;altitude;pressure_sealevel;temperature;humidity
56681;BME280;42558;52.388;13.390;2022-09-14T00:01:35;100299.73;;;12.15;100.00
56681;BME280;42558;52.388;13.390;2022-09-14T00:04:06;100300.44;;;12.08;100.00
56681;BME280;42558;52.388;13.390;2022-09-14T00:06:34;100305.55;;;12.08;100.00
56681;BME280;42558;52.388;13.390;2022-09-14T00:09:03;100303.08;;;12.07;100.00
56681;BME280;42558;52.388;13.390;2022-09-14T00:11:34;100301.16;;;12.12;100.00
56681;BME280;42558;52.388;13.390;2022-09-14T00:14:03;100300.63;;;12.16;100.00
56681;BME280;42558;52.388;13.390;2022-09-14T00:16:38;100296.92;;;12.11;100.00
56681;BME280;42558;52.388;13.390;2022-09-14T00:19:16;100295.86;;;12.12;100.00
56681;BME280;42558;52.388;13.390;2022-09-14T00:21:43;100289.88;;;11.99;100.00
56681;BME280;42558;52.388;13.390;2022-09-14T00:24:11;100288.82;;;11.92;100.00
56681;BME280;42558;52.388;13.390;2022-09-14T00:26:38;100288.81;;;11.92;100.00
56681;BME280;42558;52.388;13.390;2022-09-14T00:29:05;100287.58;;;11.95;100.00
56681;BME280;42558;52.388;13.390;2022-09-14T00:31:36;100284.23;;;11.94;100.00
56681;BME280;42558;52.388;13.390;2022-09-14T00:34:08;100280.73;;;11.91;100.00
56681;BME280;42558;52.388;13.390;2022-09-14T00:36:44;100277.70;;;11.80;100.00
56681;BME280;42558;52.388;13.390;2022-09-14T00:39:15;100281.90;;;11.77;100.00
56681;BME280;42558;52.388;13.390;2022-09-14T00:41:45;100275.21;;;11.79;100.00
56681;BME280;42558;52.388;13.390;2022-09-14T00:46:47;100277.50;;;11.77;100.00
56681;BME280;42558;52.388;13.390;2022-09-14T00:54:43;100263.05;;;11.64;100.00
56681;BME280;42558;52.388;13.390;2022-09-14T00:57:11;100257.41;;;11.70;100.00
56681;BME280;42558;52.388;13.390;2022-09-14T00:59:41;100251.06;;;11.75;100.00
56681;BME280;42558;52.388;13.390;2022-09-14T01:02:11;100251.59;;;11.75;100.00
56681;BME280;42558;52.388;13.390;2022-09-14T01:04:42;100250.38;;;11.71;100.00
56681;BME280;42558;52.388;13.390;2022-09-14T01:07:59;100252.66;;;11.70;100.00
56681;BME280;42558;52.388;13.390;2022-09-14T01:10:45;100254.95;;;11.63;100.00
56681;BME280;42558;52.388;13.390;2022-09-14T01:19:32;100247.35;;;11.45;100.00
56681;BME280;42558;52.388;13.390;2022-09-14T01:22:16;100250.88;;;11.51;100.00
56681;BME280;42558;52.388;13.390;2022-09-14T01:24:53;100249.11;;;11.48;100.00
56681;BME280;42558;52.388;13.390;2022-09-14T01:27:40;100250.52;;;11.44;100.00
56681;BME280;42558;52.388;13.390;2022-09-14T01:30:20;100250.17;;;11.46;100.00
56681;BME280;42558;52.388;13.390;2022-09-14T01:33:00;100246.11;;;11.44;100.00
56681;BME280;42558;52.388;13.390;2022-09-14T01:35:34;100246.64;;;11.38;100.00
56681;BME280;42558;52.388;13.390;2022-09-14T01:38:21;100249.09;;;11.36;100.00
56681;BME280;42558;52.388;13.390;2022-09-14T01:40:50;100245.39;;;11.36;100.00
56681;BME280;42558;52.388;13.390;2022-09-14T01:43:45;100242.05;;;11.36;100.00
56681;BME280;42558;52.388;13.390;2022-09-14T01:46:21;100243.28;;;11.41;100.00
56681;BME280;42558;52.388;13.390;2022-09-14T01:51:42;100249.63;;;11.43;100.00
56681;BME280;42558;52.388;13.390;2022-09-14T01:54:22;100249.27;;;11.33;100.00
56681;BME280;42558;52.388;13.390;2022-09-14T01:56:58;100255.94;;;11.27;100.00
56681;BME280;42558;52.388;13.390;2022-09-14T01:59:42;100252.76;;;11.29;100.00
56681;BME280;42558;52.388;13.390;2022-09-14T02:02:19;100250.30;;;11.26;100.00
56681;BME280;42558;52.388;13.390;2022-09-14T02:05:07;100244.48;;;11.20;100.00
56681;BME280;42558;52.388;13.390;2022-09-14T02:07:36;100247.28;;;11.17;100.00
56681;BME280;42558;52.388;13.390;2022-09-14T02:10:10;100240.77;;;11.14;100.00
56681;BME280;42558;52.388;13.390;2022-09-14T02:12:39;100238.65;;;11.09;100.00
56681;BME280;42558;52.388;13.390;2022-09-14T02:15:10;100245.84;;;11.07;100.00
56681;BME280;42558;52.388;13.390;2022-09-14T02:17:38;100241.63;;;11.07;100.00
56681;BME280;42558;52.388;13.390;2022-09-14T02:20:13;100244.60;;;11.05;100.00
56681;BME280;42558;52.388;13.390;2022-09-14T02:22:41;100237.73;;;10.97;100.00
56681;BME280;42558;52.388;13.390;2022-09-14T02:25:09;100242.13;;;11.00;100.00
56681;BME280;42558;52.388;13.390;2022-09-14T02:27:36;100245.30;;;11.00;100.00
56681;BME280;42558;52.388;13.390;2022-09-14T02:30:03;100245.62;;;10.95;100.00
56681;BME280;42558;52.388;13.390;2022-09-14T02:33:21;100237.87;;;10.90;100.00
56681;BME280;42558;52.388;13.390;2022-09-14T02:35:54;100237.52;;;10.94;100.00
56681;BME280;42558;52.388;13.390;2022-09-14T02:44:46;100227.47;;;10.85;100.00
56681;BME280;42558;52.388;13.390;2022-09-14T02:50:21;100233.08;;;10.82;100.00
56681;BME280;42558;52.388;13.390;2022-09-14T02:53:17;100232.90;;;10.81;100.00
56681;BME280;42558;52.388;13.390;2022-09-14T02:55:52;100228.16;;;10.79;100.00
56681;BME280;42558;52.388;13.390;2022-09-14T02:58:21;100223.94;;;10.81;100.00
56681;BME280;42558;52.388;13.390;2022-09-14T03:00:49;100225.84;;;10.72;100.00
56681;BME280;42558;52.388;13.390;2022-09-14T03:03:20;100227.07;;;10.73;100.00
56681;BME280;42558;52.388;13.390;2022-09-14T03:05:47;100227.93;;;10.68;100.00
56681;BME280;42558;52.388;13.390;2022-09-14T03:08:14;100226.33;;;10.62;100.00
56681;BME280;42558;52.388;13.390;2022-09-14T03:10:42;100226.66;;;10.61;100.00
56681;BME280;42558;52.388;13.390;2022-09-14T03:13:10;100228.60;;;10.60;100.00
56681;BME280;42558;52.388;13.390;2022-09-14T03:15:38;100231.08;;;10.64;100.00
56681;BME280;42558;52.388;13.390;2022-09-14T03:18:07;100232.52;;;10.71;100.00
56681;BME280;42558;52.388;13.390;2022-09-14T03:20:40;100238.65;;;10.69;100.00
56681;BME280;42558;52.388;13.390;2022-09-14T03:23:07;100237.09;;;10.70;100.00
56681;BME280;42558;52.388;13.390;2022-09-14T03:25:42;100235.66;;;10.66;100.00
56681;BME280;42558;52.388;13.390;2022-09-14T03:28:11;100233.38;;;10.65;100.00
56681;BME280;42558;52.388;13.390;2022-09-14T03:30:38;100223.54;;;10.69;100.00
56681;BME280;42558;52.388;13.390;2022-09-14T03:33:05;100220.05;;;10.71;100.00
56681;BME280;42558;52.388;13.390;2022-09-14T03:35:32;100219.65;;;10.64;100.00
56681;BME280;42558;52.388;13.390;2022-09-14T03:38:00;100216.65;;;10.61;100.00
56681;BME280;42558;52.388;13.390;2022-09-14T03:40:29;100210.49;;;10.62;100.00
56681;BME280;42558;52.388;13.390;2022-09-14T03:42:57;100214.70;;;10.58;100.00
56681;BME280;42558;52.388;13.390;2022-09-14T03:45:24;100215.06;;;10.59;100.00
56681;BME280;42558;52.388;13.390;2022-09-14T03:47:51;100217.35;;;10.59;100.00
56681;BME280;42558;52.388;13.390;2022-09-14T03:50:18;100218.73;;;10.55;100.00
56681;BME280;42558;52.388;13.390;2022-09-14T03:52:46;100219.45;;;10.59;100.00
56681;BME280;42558;52.388;13.390;2022-09-14T03:55:13;100214.34;;;10.58;100.00
56681;BME280;42558;52.388;13.390;2022-09-14T03:57:40;100211.69;;;10.51;100.00
56681;BME280;42558;52.388;13.390;2022-09-14T04:00:08;100214.33;;;10.51;100.00
56681;BME280;42558;52.388;13.390;2022-09-14T04:02:35;100213.39;;;10.43;100.00
56681;BME280;42558;52.388;13.390;2022-09-14T04:05:02;100209.36;;;10.43;100.00
56681;BME280;42558;52.388;13.390;2022-09-14T04:07:29;100211.83;;;10.45;100.00
56681;BME280;42558;52.388;13.390;2022-09-14T04:09:56;100213.95;;;10.45;100.00
56681;BME280;42558;52.388;13.390;2022-09-14T04:12:23;100216.38;;;10.40;100.00
56681;BME280;42558;52.388;13.390;2022-09-14T04:14:50;100219.85;;;10.35;100.00
56681;BME280;42558;52.388;13.390;2022-09-14T04:17:17;100231.07;;;10.28;100.00
56681;BME280;42558;52.388;13.390;2022-09-14T04:19:44;100229.66;;;10.30;100.00
56681;BME280;42558;52.388;13.390;2022-09-14T04:22:10;100226.88;;;10.32;100.00
56681;BME280;42558;52.388;13.390;2022-09-14T04:24:37;100218.61;;;10.31;100.00
56681;BME280;42558;52.388;13.390;2022-09-14T04:27:04;100207.90;;;10.34;100.00
56681;BME280;42558;52.388;13.390;2022-09-14T04:29:31;100205.98;;;10.36;100.00
56681;BME280;42558;52.388;13.390;2022-09-14T04:31:58;100205.44;;;10.35;100.00
56681;BME280;42558;52.388;13.390;2022-09-14T04:34:25;100211.58;;;10.32;100.00
56681;BME280;42558;52.388;13.390;2022-09-14T04:36:52;100214.73;;;10.29;100.00
56681;BME280;42558;52.388;13.390;2022-09-14T04:39:18;100207.86;;;10.27;100.00
56681;BME280;42558;52.388;13.390;2022-09-14T04:41:46;100205.78;;;10.30;100.00
56681;BME280;42558;52.388;13.390;2022-09-14T04:44:13;100205.61;;;10.32;100.00
56681;BME280;42558;52.388;13.390;2022-09-14T04:46:40;100206.31;;;10.32;100.00
56681;BME280;42558;52.388;13.390;2022-09-14T04:49:16;100205.97;;;10.31;100.00
56681;BME280;42558;52.388;13.390;2022-09-14T04:51:44;100199.63;;;10.32;100.00
56681;BME280;42558;52.388;13.390;2022-09-14T04:54:15;100194.02;;;10.33;100.00
56681;BME280;42558;52.388;13.390;2022-09-14T04:56:43;100191.91;;;10.36;100.00
56681;BME280;42558;52.388;13.390;2022-09-14T04:59:11;100192.44;;;10.32;100.00
56681;BME280;42558;52.388;13.390;2022-09-14T05:01:43;100193.27;;;10.27;100.00
56681;BME280;42558;52.388;13.390;2022-09-14T05:04:11;100194.15;;;10.26;100.00
56681;BME280;42558;52.388;13.390;2022-09-14T05:06:40;100191.52;;;10.27;100.00
56681;BME280;42558;52.388;13.390;2022-09-14T05:09:15;100188.03;;;10.32;100.00
56681;BME280;42558;52.388;13.390;2022-09-14T05:11:43;100187.52;;;10.33;100.00
56681;BME280;42558;52.388;13.390;2022-09-14T05:14:12;100192.43;;;10.31;100.00
56681;BME280;42558;52.388;13.390;2022-09-14T05:16:41;100185.38;;;10.29;100.00
56681;BME280;42558;52.388;13.390;2022-09-14T05:19:13;100182.56;;;10.27;100.00
56681;BME280;42558;52.388;13.390;2022-09-14T05:21:41;100190.59;;;10.22;100.00
56681;BME280;42558;52.388;13.390;2022-09-14T05:24:17;100195.31;;;10.20;100.00
56681;BME280;42558;52.388;13.390;2022-09-14T05:26:45;100199.70;;;10.19;100.00
56681;BME280;42558;52.388;13.390;2022-09-14T05:29:15;100198.65;;;10.22;100.00
56681;BME280;42558;52.388;13.390;2022-09-14T05:31:43;100195.93;;;10.30;100.00
56681;BME280;42558;52.388;13.390;2022-09-14T05:34:11;100190.33;;;10.34;100.00
56681;BME280;42558;52.388;13.390;2022-09-14T05:36:39;100196.86;;;10.39;100.00
56681;BME280;42558;52.388;13.390;2022-09-14T05:39:07;100201.27;;;10.38;100.00
56681;BME280;42558;52.388;13.390;2022-09-14T05:41:34;100200.91;;;10.41;100.00
56681;BME280;42558;52.388;13.390;2022-09-14T05:44:02;100190.08;;;10.53;100.00
56681;BME280;42558;52.388;13.390;2022-09-14T05:46:28;100193.09;;;10.63;100.00
56681;BME280;42558;52.388;13.390;2022-09-14T05:48:55;100195.05;;;10.68;100.00
56681;BME280;42558;52.388;13.390;2022-09-14T05:51:25;100191.54;;;10.67;100.00
56681;BME280;42558;52.388;13.390;2022-09-14T05:53:57;100191.36;;;10.66;100.00
56681;BME280;42558;52.388;13.390;2022-09-14T05:56:28;100188.20;;;10.69;100.00
56681;BME280;42558;52.388;13.390;2022-09-14T05:58:55;100186.07;;;10.62;100.00
56681;BME280;42558;52.388;13.390;2022-09-14T06:01:26;100181.84;;;10.60;100.00
56681;BME280;42558;52.388;13.390;2022-09-14T06:03:56;100170.98;;;10.69;100.00
56681;BME280;42558;52.388;13.390;2022-09-14T06:06:23;100170.32;;;10.83;100.00
56681;BME280;42558;52.388;13.390;2022-09-14T06:08:52;100169.64;;;10.91;100.00
56681;BME280;42558;52.388;13.390;2022-09-14T06:11:27;100168.59;;;11.00;100.00
56681;BME280;42558;52.388;13.390;2022-09-14T06:13:56;100163.70;;;11.09;100.00
56681;BME280;42558;52.388;13.390;2022-09-14T06:16:25;100166.35;;;11.13;100.00
56681;BME280;42558;52.388;13.390;2022-09-14T06:18:55;100170.76;;;11.17;100.00
56681;BME280;42558;52.388;13.390;2022-09-14T06:21:28;100164.59;;;11.22;100.00
56681;BME280;42558;52.388;13.390;2022-09-14T06:23:55;100155.98;;;11.29;100.00
56681;BME280;42558;52.388;13.390;2022-09-14T06:26:24;100158.45;;;11.37;100.00
56681;BME280;42558;52.388;13.390;2022-09-14T06:28:51;100159.68;;;11.45;100.00
56681;BME280;42558;52.388;13.390;2022-09-14T06:31:18;100160.39;;;11.51;100.00
56681;BME280;42558;52.388;13.390;2022-09-14T06:33:50;100161.80;;;11.55;100.00
56681;BME280;42558;52.388;13.390;2022-09-14T06:36:20;100159.51;;;11.62;100.00
56681;BME280;42558;52.388;13.390;2022-09-14T06:38:49;100160.38;;;11.70;100.00
56681;BME280;42558;52.388;13.390;2022-09-14T06:41:20;100152.46;;;11.76;100.00
56681;BME280;42558;52.388;13.390;2022-09-14T06:43:48;100154.58;;;11.79;100.00
56681;BME280;42558;52.388;13.390;2022-09-14T06:46:19;100154.95;;;11.80;100.00
56681;BME280;42558;52.388;13.390;2022-09-14T06:48:53;100158.80;;;11.92;100.00
56681;BME280;42558;52.388;13.390;2022-09-14T06:53:52;100163.26;;;12.44;100.00
56681;BME280;42558;52.388;13.390;2022-09-14T06:56:20;100167.77;;;12.61;100.00
56681;BME280;42558;52.388;13.390;2022-09-14T06:58:47;100163.87;;;12.67;100.00
56681;BME280;42558;52.388;13.390;2022-09-14T07:01:18;100159.76;;;12.77;100.00
56681;BME280;42558;52.388;13.390;2022-09-14T07:03:48;100157.95;;;12.85;100.00
56681;BME280;42558;52.388;13.390;2022-09-14T07:06:21;100158.30;;;12.84;100.00
56681;BME280;42558;52.388;13.390;2022-09-14T07:08:49;100158.30;;;12.86;100.00
56681;BME280;42558;52.388;13.390;2022-09-14T07:11:20;100161.81;;;12.90;100.00
56681;BME280;42558;52.388;13.390;2022-09-14T07:13:47;100160.21;;;12.93;100.00
56681;BME280;42558;52.388;13.390;2022-09-14T07:16:15;100164.77;;;12.98;100.00
56681;BME280;42558;52.388;13.390;2022-09-14T07:18:41;100164.05;;;12.98;100.00
56681;BME280;42558;52.388;13.390;2022-09-14T07:21:16;100166.50;;;13.02;100.00
56681;BME280;42558;52.388;13.390;2022-09-14T07:23:45;100166.18;;;12.98;100.00
56681;BME280;42558;52.388;13.390;2022-09-14T07:26:24;100162.61;;;13.04;100.00
56681;BME280;42558;52.388;13.390;2022-09-14T07:29:01;100160.25;;;13.16;100.00
56681;BME280;42558;52.388;13.390;2022-09-14T07:31:30;100157.73;;;13.26;100.00
56681;BME280;42558;52.388;13.390;2022-09-14T07:34:01;100157.32;;;13.35;100.00
56681;BME280;42558;52.388;13.390;2022-09-14T07:36:31;100156.38;;;13.42;100.00
56681;BME280;42558;52.388;13.390;2022-09-14T07:39:04;100152.63;;;13.48;100.00
56681;BME280;42558;52.388;13.390;2022-09-14T07:41:32;100157.11;;;13.61;100.00
56681;BME280;42558;52.388;13.390;2022-09-14T07:44:04;100159.23;;;13.61;100.00
56681;BME280;42558;52.388;13.390;2022-09-14T07:46:38;100163.55;;;13.71;100.00
56681;BME280;42558;52.388;13.390;2022-09-14T07:49:07;100159.95;;;13.77;100.00
56681;BME280;42558;52.388;13.390;2022-09-14T07:51:35;100161.58;;;13.93;100.00
56681;BME280;42558;52.388;13.390;2022-09-14T07:54:05;100161.52;;;14.31;100.00
56681;BME280;42558;52.388;13.390;2022-09-14T07:56:32;100157.27;;;14.65;100.00
56681;BME280;42558;52.388;13.390;2022-09-14T07:59:01;100158.00;;;14.77;100.00
56681;BME280;42558;52.388;13.390;2022-09-14T08:01:48;100161.36;;;14.64;100.00
56681;BME280;42558;52.388;13.390;2022-09-14T08:04:16;100160.75;;;14.55;100.00
56681;BME280;42558;52.388;13.390;2022-09-14T08:06:42;100162.34;;;14.70;100.00
56681;BME280;42558;52.388;13.390;2022-09-14T08:09:09;100164.36;;;14.90;100.00
56681;BME280;42558;52.388;13.390;2022-09-14T08:11:37;100161.67;;;15.18;99.91
56681;BME280;42558;52.388;13.390;2022-09-14T08:14:10;100161.85;;;15.06;98.82
56681;BME280;42558;52.388;13.390;2022-09-14T08:16:39;100161.65;;;15.19;99.75
56681;BME280;42558;52.388;13.390;2022-09-14T08:19:12;100160.20;;;15.44;98.57
56681;BME280;42558;52.388;13.390;2022-09-14T08:21:42;100163.29;;;15.73;95.75
56681;BME280;42558;52.388;13.390;2022-09-14T08:24:19;100165.80;;;15.82;93.52
56681;BME280;42558;52.388;13.390;2022-09-14T08:26:48;100167.60;;;15.90;94.14
56681;BME280;42558;52.388;13.390;2022-09-14T08:29:17;100166.82;;;15.74;90.65
56681;BME280;42558;52.388;13.390;2022-09-14T08:31:45;100163.93;;;15.67;92.54
56681;BME280;42558;52.388;13.390;2022-09-14T08:34:14;100158.40;;;16.08;93.45
56681;BME280;42558;52.388;13.390;2022-09-14T08:36:43;100156.29;;;16.72;90.07
56681;BME280;42558;52.388;13.390;2022-09-14T08:39:13;100157.48;;;16.38;89.29
56681;BME280;42558;52.388;13.390;2022-09-14T08:41:57;100155.68;;;16.30;91.05
56681;BME280;42558;52.388;13.390;2022-09-14T08:44:39;100148.98;;;16.36;89.57
56681;BME280;42558;52.388;13.390;2022-09-14T08:47:28;100148.39;;;16.49;86.30
56681;BME280;42558;52.388;13.390;2022-09-14T08:50:15;100150.56;;;16.65;86.11
56681;BME280;42558;52.388;13.390;2022-09-14T08:52:47;100151.98;;;16.55;83.89
56681;BME280;42558;52.388;13.390;2022-09-14T08:55:34;100149.88;;;16.63;84.71
56681;BME280;42558;52.388;13.390;2022-09-14T09:07:15;100146.91;;;17.55;79.87
56681;BME280;42558;52.388;13.390;2022-09-14T09:09:49;100138.48;;;17.29;78.88
56681;BME280;42558;52.388;13.390;2022-09-14T09:12:33;100134.63;;;17.26;79.04
56681;BME280;42558;52.388;13.390;2022-09-14T09:18:07;100137.84;;;16.88;79.35
56681;BME280;42558;52.388;13.390;2022-09-14T09:20:46;100133.57;;;16.95;75.80
56681;BME280;42558;52.388;13.390;2022-09-14T09:23:20;100130.02;;;16.95;77.74
56681;BME280;42558;52.388;13.390;2022-09-14T09:26:15;100132.36;;;16.94;78.33
56681;BME280;42558;52.388;13.390;2022-09-14T09:28:53;100134.63;;;16.96;77.53
56681;BME280;42558;52.388;13.390;2022-09-14T09:31:34;100134.71;;;16.92;76.70
56681;BME280;42558;52.388;13.390;2022-09-14T09:34:02;100131.11;;;17.10;77.82
56681;BME280;42558;52.388;13.390;2022-09-14T09:36:35;100127.49;;;17.13;74.52
56681;BME280;42558;52.388;13.390;2022-09-14T09:39:05;100124.29;;;17.13;74.21
56681;BME280;42558;52.388;13.390;2022-09-14T09:45:02;100117.00;;;16.97;71.48
56681;BME280;42558;52.388;13.390;2022-09-14T09:47:42;100117.65;;;17.01;70.97
56681;BME280;42558;52.388;13.390;2022-09-14T09:52:51;100110.21;;;17.30;70.48
56681;BME280;42558;52.388;13.390;2022-09-14T09:55:25;100111.30;;;17.36;70.59
56681;BME280;42558;52.388;13.390;2022-09-14T09:57:54;100110.08;;;17.35;70.61
56681;BME280;42558;52.388;13.390;2022-09-14T10:00:26;100106.20;;;17.27;71.67
56681;BME280;42558;52.388;13.390;2022-09-14T10:02:55;100104.54;;;17.29;69.19
56681;BME280;42558;52.388;13.390;2022-09-14T10:05:26;100110.14;;;17.10;67.37
56681;BME280;42558;52.388;13.390;2022-09-14T10:08:04;100112.55;;;16.91;69.40
56681;BME280;42558;52.388;13.390;2022-09-14T10:16:24;100100.72;;;17.18;69.93
56681;BME280;42558;52.388;13.390;2022-09-14T10:18:55;100097.96;;;17.22;69.92
56681;BME280;42558;52.388;13.390;2022-09-14T10:21:25;100100.10;;;17.22;69.56
56681;BME280;42558;52.388;13.390;2022-09-14T10:24:14;100096.34;;;17.16;67.70
56681;BME280;42558;52.388;13.390;2022-09-14T10:26:42;100095.92;;;17.10;68.63
56681;BME280;42558;52.388;13.390;2022-09-14T10:29:37;100093.73;;;17.13;66.84
56681;BME280;42558;52.388;13.390;2022-09-14T10:32:19;100095.09;;;17.08;66.97
56681;BME280;42558;52.388;13.390;2022-09-14T10:34:50;100098.27;;;17.16;66.90
56681;BME280;42558;52.388;13.390;2022-09-14T10:40:12;100092.13;;;17.12;66.64
56681;BME280;42558;52.388;13.390;2022-09-14T10:43:11;100084.77;;;17.31;68.57
56681;BME280;42558;52.388;13.390;2022-09-14T10:45:51;100076.09;;;17.51;67.35
56681;BME280;42558;52.388;13.390;2022-09-14T11:00:04;100077.23;;;17.48;65.87
56681;BME280;42558;52.388;13.390;2022-09-14T11:09:21;100082.38;;;17.55;64.69
56681;BME280;42558;52.388;13.390;2022-09-14T11:15:40;100083.33;;;17.74;64.15
56681;BME280;42558;52.388;13.390;2022-09-14T11:21:34;100078.95;;;17.78;64.03
56681;BME280;42558;52.388;13.390;2022-09-14T11:29:48;100071.66;;;17.85;62.85
56681;BME280;42558;52.388;13.390;2022-09-14T11:32:26;100083.17;;;17.65;63.27
56681;BME280;42558;52.388;13.390;2022-09-14T11:35:14;100088.86;;;17.37;63.75
56681;BME280;42558;52.388;13.390;2022-09-14T11:37:58;100089.50;;;17.34;63.87
56681;BME280;42558;52.388;13.390;2022-09-14T11:43:42;100083.16;;;17.59;63.81
56681;BME280;42558;52.388;13.390;2022-09-14T11:46:23;100080.66;;;17.81;64.42
56681;BME280;42558;52.388;13.390;2022-09-14T11:52:01;100068.68;;;17.90;61.39
56681;BME280;42558;52.388;13.390;2022-09-14T11:54:30;100066.92;;;17.95;61.94
56681;BME280;42558;52.388;13.390;2022-09-14T11:57:02;100060.05;;;17.93;62.05
56681;BME280;42558;52.388;13.390;2022-09-14T12:15:40;100056.58;;;17.70;65.47
56681;BME280;42558;52.388;13.390;2022-09-14T12:36:11;100048.07;;;17.95;64.74
56681;BME280;42558;52.388;13.390;2022-09-14T12:54:16;100035.29;;;18.19;64.86
56681;BME280;42558;52.388;13.390;2022-09-14T13:00:14;100026.70;;;18.15;62.97
56681;BME280;42558;52.388;13.390;2022-09-14T13:03:19;100027.80;;;18.20;64.77
56681;BME280;42558;52.388;13.390;2022-09-14T13:05:49;100020.61;;;18.22;64.08
56681;BME280;42558;52.388;13.390;2022-09-14T13:08:22;100012.70;;;17.88;64.00
56681;BME280;42558;52.388;13.390;2022-09-14T13:10:51;100008.87;;;17.98;64.57
56681;BME280;42558;52.388;13.390;2022-09-14T13:13:29;99997.13;;;17.91;64.31
56681;BME280;42558;52.388;13.390;2022-09-14T13:16:03;99992.15;;;17.86;63.99
56681;BME280;42558;52.388;13.390;2022-09-14T13:18:36;99982.16;;;17.80;64.14
56681;BME280;42558;52.388;13.390;2022-09-14T13:21:17;99983.49;;;17.84;65.25
56681;BME280;42558;52.388;13.390;2022-09-14T13:23:46;99981.15;;;17.91;65.38
56681;BME280;42558;52.388;13.390;2022-09-14T13:26:24;99976.03;;;17.95;66.07
56681;BME280;42558;52.388;13.390;2022-09-14T13:28:54;99977.70;;;17.93;64.89
56681;BME280;42558;52.388;13.390;2022-09-14T13:31:30;99977.52;;;17.81;64.57
56681;BME280;42558;52.388;13.390;2022-09-14T13:33:58;99981.20;;;17.83;64.63
56681;BME280;42558;52.388;13.390;2022-09-14T13:36:30;99986.44;;;17.86;64.48
56681;BME280;42558;52.388;13.390;2022-09-14T13:39:01;99979.79;;;17.89;66.20
56681;BME280;42558;52.388;13.390;2022-09-14T13:41:30;99977.07;;;17.71;64.86
56681;BME280;42558;52.388;13.390;2022-09-14T13:43:59;99975.50;;;17.63;66.59
56681;BME280;42558;52.388;13.390;2022-09-14T13:46:27;99972.54;;;17.61;67.05
56681;BME280;42558;52.388;13.390;2022-09-14T13:48:55;99973.44;;;17.61;68.56
56681;BME280;42558;52.388;13.390;2022-09-14T13:51:26;99972.69;;;17.68;69.09
56681;BME280;42558;52.388;13.390;2022-09-14T13:53:57;99973.68;;;17.65;67.68
56681;BME280;42558;52.388;13.390;2022-09-14T13:56:41;99972.65;;;17.63;66.86
56681;BME280;42558;52.388;13.390;2022-09-14T14:01:52;99972.38;;;17.60;66.91
56681;BME280;42558;52.388;13.390;2022-09-14T14:04:53;99968.73;;;17.57;67.28
56681;BME280;42558;52.388;13.390;2022-09-14T14:07:30;99953.09;;;17.51;66.78
56681;BME280;42558;52.388;13.390;2022-09-14T14:10:00;99951.15;;;17.56;67.02
56681;BME280;42558;52.388;13.390;2022-09-14T14:12:36;99952.65;;;17.60;66.90
56681;BME280;42558;52.388;13.390;2022-09-14T14:17:41;99943.33;;;17.57;67.94
56681;BME280;42558;52.388;13.390;2022-09-14T14:20:34;99943.80;;;17.53;68.54
56681;BME280;42558;52.388;13.390;2022-09-14T14:23:18;99945.50;;;17.49;67.92
56681;BME280;42558;52.388;13.390;2022-09-14T14:25:50;99948.45;;;17.52;68.77
56681;BME280;42558;52.388;13.390;2022-09-14T14:28:29;99943.05;;;17.48;67.55
56681;BME280;42558;52.388;13.390;2022-09-14T14:30:58;99941.32;;;17.46;67.93
56681;BME280;42558;52.388;13.390;2022-09-14T14:33:31;99939.14;;;17.48;68.77
56681;BME280;42558;52.388;13.390;2022-09-14T14:35:58;99938.10;;;17.34;68.20
56681;BME280;42558;52.388;13.390;2022-09-14T14:38:25;99938.00;;;17.24;68.75
56681;BME280;42558;52.388;13.390;2022-09-14T14:40:54;99938.19;;;17.17;68.56
56681;BME280;42558;52.388;13.390;2022-09-14T14:43:24;99937.41;;;17.13;68.91
56681;BME280;42558;52.388;13.390;2022-09-14T14:45:59;99938.02;;;17.10;69.12
56681;BME280;42558;52.388;13.390;2022-09-14T14:48:27;99939.52;;;17.07;68.86
56681;BME280;42558;52.388;13.390;2022-09-14T14:50:54;99940.33;;;17.04;69.47
56681;BME280;42558;52.388;13.390;2022-09-14T14:53:23;99941.88;;;16.99;70.08
56681;BME280;42558;52.388;13.390;2022-09-14T14:55:51;99943.62;;;17.00;70.21
56681;BME280;42558;52.388;13.390;2022-09-14T14:58:20;99943.68;;;17.04;72.57
56681;BME280;42558;52.388;13.390;2022-09-14T15:00:47;99935.06;;;17.02;71.71
56681;BME280;42558;52.388;13.390;2022-09-14T15:03:15;99935.52;;;17.04;71.64
56681;BME280;42558;52.388;13.390;2022-09-14T15:05:44;99934.52;;;17.02;72.52
56681;BME280;42558;52.388;13.390;2022-09-14T15:08:14;99939.69;;;16.87;72.61
56681;BME280;42558;52.388;13.390;2022-09-14T15:10:42;99931.20;;;16.86;72.98
56681;BME280;42558;52.388;13.390;2022-09-14T15:13:10;99925.55;;;16.84;73.84
56681;BME280;42558;52.388;13.390;2022-09-14T15:15:39;99925.05;;;16.77;75.15
56681;BME280;42558;52.388;13.390;2022-09-14T15:18:08;99923.95;;;16.78;76.04
56681;BME280;42558;52.388;13.390;2022-09-14T15:20:35;99922.36;;;16.70;76.99
56681;BME280;42558;52.388;13.390;2022-09-14T15:23:02;99919.69;;;16.70;77.37
56681;BME280;42558;52.388;13.390;2022-09-14T15:25:29;99916.51;;;16.62;76.11
56681;BME280;42558;52.388;13.390;2022-09-14T15:27:56;99918.90;;;16.58;77.11
56681;BME280;42558;52.388;13.390;2022-09-14T15:30:23;99926.13;;;16.60;76.34
56681;BME280;42558;52.388;13.390;2022-09-14T15:32:50;99923.80;;;16.61;76.62